Main page
METAR-TAF:

METAR-TAF

Airports :

Anatom Airport

Aneityum, Vanuatu

latitude: 20-14-57S, longitude: 169-46-17E, elevation: 2 m

Current weather observation

The report was made 3 hours and 17 minutes ago, at 15:00 UTC
Wind 4 kt from the East/Southeast
Temperature 23°C
Humidity 94%
Pressure 1016 hPa
Visibility 10 km or more
Few clouds at a height of 2000 ft
Broken clouds at a height of 4000 ft

METAR: NVVA 211500Z 12004KT 9999 FEW020 BKN040 23/22 Q1016

Time: 05:17 (18:17 UTC)

Forecast

The report was made 1 hour and 17 minutes ago, at 17:00 UTC
Forecast valid from 21 at 18 UTC to 22 at 18 UTC
Wind 12 kt from the East/Southeast
Visibility: 9000 m
Scattered clouds at a height of 2000 ft
Scattered clouds at a height of 1200 ft
Broken clouds at a height of 1800 ft
rain showers,

TAF: NVVA 211700Z 2118/2218 12012KT 9999 SCT020 INTER 2118/2122 9000 SHRA SCT012 BKN018

Weather observations and forecasts of more than 4000 airports (METAR and TAF reports).

The available stations are represented by yellow and red dots on the map.

Hover mouse over dot to see the name of the station.

Then click to see weather observations and forecasts.

To change the map : click on the green buttons with a black cross to zoom in, on the green button with a dash to zoom out, or on the green arrows for adjacent maps.


METAR-TAF: